»·PEaware :: N12PL KTEX-KSUN

N12PL :: KTEX-KSUN

FLIGHT INFORMATION

Flight Status: Arrived
Operator: Privately registered:
United States
More flights under this callsign
Pilot: Ethan S. (29221)
Aircraft: CANADAIR CL-600 CHALLENGER
(CL60)
More flights by this aircraft type
Origin: KTEX Telluride Regl
United States
Destination: KSUN Friedman Meml
United States
More flights between these airports :: More routes between these airports
Route: ETL MTU MLD MENIN OREYE
File this flight plan on PilotEdge
Remarks:
Altitude:
(Current/Filed)
38,000ft
Speed:
(Current/Filed)
465kts
Departed: 09-Sep-23 02:27 PM
Arrived: 09-Sep-23 03:37 PM
Distance/Time
Traveled:
441nm/1:10
Distance/Time
To Go:
Arrived

Flight Plot

Page will automatically refresh every two minutes.

Flight plan parsing failed; only flown route is shown


Map Options




Map Legend


Flown Route
Filed Route
Departure Airport
Arrival Airport
Navaid (VOR, NDB)
Fix

Horizontal Profiles

Position Reports

Time Latitude Longitude Heading Altitude Ground
Speed
09-Sep-23 14:05 37.954140 -107.902126 105 9065ft 0kts
09-Sep-23 14:06 37.954140 -107.902126 105 9065ft 0kts
09-Sep-23 14:07 37.954140 -107.902126 105 9065ft 0kts
09-Sep-23 14:07 37.954140 -107.902126 105 9065ft 0kts
09-Sep-23 14:08 37.954140 -107.902126 105 9064ft 0kts
09-Sep-23 14:09 37.954140 -107.902126 105 9064ft 0kts
09-Sep-23 14:11 37.954140 -107.902126 105 9064ft 0kts
09-Sep-23 14:11 37.954140 -107.902126 105 9064ft 0kts
09-Sep-23 14:12 37.954140 -107.902126 105 9064ft 0kts
09-Sep-23 14:13 37.954140 -107.902126 105 9064ft 0kts
09-Sep-23 14:14 37.954140 -107.902126 105 9064ft 0kts
09-Sep-23 14:15 37.954140 -107.902126 105 9064ft 0kts
09-Sep-23 14:16 37.954140 -107.902126 105 9064ft 0kts
09-Sep-23 14:17 37.954140 -107.902126 105 9064ft 0kts
09-Sep-23 14:18 37.954140 -107.902126 105 9064ft 0kts
09-Sep-23 14:19 37.954140 -107.902126 105 9064ft 0kts
09-Sep-23 14:20 37.953497 -107.901027 125 9070ft 12kts
09-Sep-23 14:21 37.953243 -107.898863 138 9081ft 0kts
09-Sep-23 14:22 37.953243 -107.898863 138 9081ft 0kts
09-Sep-23 14:23 37.952580 -107.897488 103 9086ft 8kts
09-Sep-23 14:24 37.952372 -107.896780 137 9089ft 0kts
09-Sep-23 14:25 37.951395 -107.897269 282 9085ft 12kts
09-Sep-23 14:26 37.960161 -107.939388 284 10315ft 196kts
09-Sep-23 14:27 37.978338 -108.026064 285 12989ft 312kts
09-Sep-23 14:28 38.007270 -108.136412 287 17214ft 344kts
09-Sep-23 14:29 38.042864 -108.251422 304 20835ft 367kts
09-Sep-23 14:30 38.126053 -108.331504 323 24122ft 386kts
09-Sep-23 14:31 38.216156 -108.408908 322 27036ft 399kts
09-Sep-23 14:32 38.309511 -108.489282 322 29473ft 412kts
09-Sep-23 14:33 38.405015 -108.571707 321 31644ft 418kts
09-Sep-23 14:34 38.499176 -108.653137 320 34396ft 397kts
09-Sep-23 14:35 38.587860 -108.730091 320 36595ft 382kts
09-Sep-23 14:36 38.675292 -108.806276 319 38133ft 377kts
09-Sep-23 14:37 38.762994 -108.883029 319 38600ft 393kts
09-Sep-23 14:38 38.855817 -108.964509 319 38616ft 413kts
09-Sep-23 14:39 38.952232 -109.049261 319 38638ft 425kts
09-Sep-23 14:40 39.050008 -109.135544 319 38631ft 427kts
09-Sep-23 14:41 39.147790 -109.222129 319 38601ft 426kts
09-Sep-23 14:42 39.244918 -109.308382 319 38640ft 424kts
09-Sep-23 14:43 39.342480 -109.395401 319 38681ft 427kts
09-Sep-23 14:44 39.440087 -109.482701 319 38722ft 427kts
09-Sep-23 14:45 39.537566 -109.570257 319 38771ft 425kts
09-Sep-23 14:46 39.634583 -109.657724 318 38776ft 427kts
09-Sep-23 14:47 39.732009 -109.745826 318 38738ft 426kts
09-Sep-23 14:48 39.829240 -109.834106 318 38719ft 426kts
09-Sep-23 14:49 39.926413 -109.922603 318 38703ft 425kts
09-Sep-23 14:50 40.023445 -110.011289 318 38704ft 427kts
09-Sep-23 14:51 40.120014 -110.099841 318 38742ft 427kts
09-Sep-23 14:52 40.212438 -110.195331 314 38793ft 422kts
09-Sep-23 14:53 40.302596 -110.293761 314 38782ft 422kts
09-Sep-23 14:54 40.392638 -110.392423 314 38837ft 420kts
09-Sep-23 14:55 40.482136 -110.490815 314 38889ft 420kts
09-Sep-23 14:56 40.571606 -110.589478 313 38975ft 422kts
09-Sep-23 14:57 40.661918 -110.689469 313 38998ft 423kts
09-Sep-23 14:58 40.751776 -110.789283 313 38916ft 421kts
09-Sep-23 14:59 40.841690 -110.889516 313 38879ft 420kts
09-Sep-23 15:00 40.931394 -110.989939 313 38812ft 422kts
09-Sep-23 15:01 41.021008 -111.090594 313 38817ft 422kts
09-Sep-23 15:02 41.110049 -111.190937 313 38770ft 423kts
09-Sep-23 15:03 41.199663 -111.292357 313 38755ft 423kts
09-Sep-23 15:04 41.289606 -111.394513 313 38762ft 425kts
09-Sep-23 15:05 41.379775 -111.497283 312 38777ft 424kts
09-Sep-23 15:06 41.469862 -111.600455 312 38677ft 426kts
09-Sep-23 15:07 41.560279 -111.704307 312 38645ft 426kts
09-Sep-23 15:08 41.650416 -111.808235 312 38613ft 426kts
09-Sep-23 15:09 41.740475 -111.912479 312 38604ft 429kts
09-Sep-23 15:10 41.830946 -112.017611 312 38607ft 429kts
09-Sep-23 15:11 41.921403 -112.123137 312 38605ft 431kts
09-Sep-23 15:12 42.011831 -112.229006 311 38612ft 431kts
09-Sep-23 15:13 42.102594 -112.335747 311 38618ft 432kts
09-Sep-23 15:14 42.192816 -112.443313 309 38646ft 430kts
09-Sep-23 15:15 42.270922 -112.559484 305 38707ft 427kts
09-Sep-23 15:16 42.349813 -112.681649 305 38679ft 430kts
09-Sep-23 15:17 42.426528 -112.800625 304 36688ft 408kts
09-Sep-23 15:18 42.499466 -112.914282 304 34557ft 391kts
09-Sep-23 15:19 42.570926 -113.026250 304 32415ft 396kts
09-Sep-23 15:20 42.643657 -113.140757 304 30252ft 401kts
09-Sep-23 15:21 42.715243 -113.253683 305 28154ft 386kts
09-Sep-23 15:22 42.784427 -113.363341 305 26067ft 378kts
09-Sep-23 15:23 42.852135 -113.470960 306 23943ft 369kts
09-Sep-23 15:24 42.918142 -113.576160 306 21846ft 361kts
09-Sep-23 15:25 42.982549 -113.679214 306 19735ft 352kts
09-Sep-23 15:26 43.044012 -113.777798 306 17748ft 330kts
09-Sep-23 15:27 43.102136 -113.871326 307 15695ft 312kts
09-Sep-23 15:28 43.155585 -113.960397 305 13645ft 295kts
09-Sep-23 15:29 43.213068 -114.037759 325 11537ft 289kts
09-Sep-23 15:30 43.280755 -114.096072 326 9434ft 290kts
09-Sep-23 15:31 43.344242 -114.150055 325 8822ft 242kts
09-Sep-23 15:32 43.390185 -114.197805 319 7910ft 168kts
09-Sep-23 15:33 43.424166 -114.231129 330 7158ft 145kts
09-Sep-23 15:34 43.460703 -114.254996 328 6091ft 142kts
09-Sep-23 15:35 43.493343 -114.285444 323 5370ft 138kts
09-Sep-23 15:36 43.503495 -114.296699 169 5294ft 0kts
09-Sep-23 15:37 43.503488 -114.296698 168 5294ft 0kts
09-Sep-23 15:38 43.500363 -114.293735 146 5283ft 23kts
09-Sep-23 15:39 43.498206 -114.292384 35 5279ft 1kts
09-Sep-23 15:40 43.498252 -114.292300 54 5279ft 0kts
09-Sep-23 15:41 43.498252 -114.292300 54 5279ft 0kts
09-Sep-23 15:42 43.498252 -114.292300 54 5279ft 0kts
09-Sep-23 15:43 43.498252 -114.292300 54 5279ft 0kts
09-Sep-23 15:44 43.498252 -114.292300 54 5279ft 0kts
09-Sep-23 15:45 43.498252 -114.292300 54 5279ft 0kts
09-Sep-23 15:46 43.498252 -114.292300 54 5279ft 0kts
09-Sep-23 15:47 43.498252 -114.292300 54 5279ft 0kts
09-Sep-23 15:48 43.498252 -114.292300 54 5279ft 0kts

Navigation Log

Ident Type
Flight plan parsing failed, navigation log unavailable